createdAt,value
2019-02-24T00:01:24.727Z,104.77
2019-02-24T00:04:14.824Z,110.43
2019-02-24T00:06:44.627Z,112.67
2019-02-24T00:09:16.954Z,108.27
2019-02-24T00:11:49.115Z,102.63
2019-02-24T00:14:19.331Z,75.80
2019-02-24T00:16:50.730Z,71.00
2019-02-24T00:19:20.995Z,72.07
2019-02-24T00:21:55.625Z,80.53
2019-02-24T00:24:26.290Z,105.60
2019-02-24T00:26:56.528Z,92.97
2019-02-24T00:29:29.976Z,79.10
2019-02-24T00:32:00.972Z,74.87
2019-02-24T00:34:33.309Z,67.53
2019-02-24T00:37:04.403Z,65.13
2019-02-24T00:39:34.040Z,71.90
2019-02-24T00:42:05.524Z,72.40
2019-02-24T00:44:35.094Z,69.13
2019-02-24T00:47:04.815Z,65.93
2019-02-24T00:49:35.763Z,72.53
2019-02-24T00:52:07.908Z,78.60
2019-02-24T00:54:38.808Z,80.60
2019-02-24T00:57:10.777Z,84.00
2019-02-24T00:59:43.417Z,86.73
2019-02-24T01:02:15.440Z,82.15
2019-02-24T01:04:47.007Z,82.30
2019-02-24T01:07:18.956Z,83.17
2019-02-24T01:09:49.295Z,85.90
2019-02-24T01:12:20.227Z,80.83
2019-02-24T01:14:52.761Z,79.07
2019-02-24T01:17:22.403Z,76.73
2019-02-24T01:19:53.966Z,71.70
2019-02-24T01:22:25.275Z,65.33
2019-02-24T01:24:56.835Z,70.17
2019-02-24T01:27:27.075Z,73.07
2019-02-24T01:29:57.491Z,73.87
2019-02-24T01:32:28.537Z,85.17
2019-02-24T01:35:00.305Z,88.40
2019-02-24T01:37:33.106Z,87.13
2019-02-24T01:40:05.364Z,88.43
2019-02-24T01:42:36.523Z,95.10
2019-02-24T01:45:09.934Z,87.53
2019-02-24T01:47:43.824Z,86.60
2019-02-24T01:50:16.536Z,78.07
2019-02-24T01:52:48.170Z,103.60
2019-02-24T01:55:18.740Z,91.37
2019-02-24T01:57:49.030Z,77.50
2019-02-24T02:00:22.015Z,70.27
2019-02-24T02:02:52.538Z,81.02
2019-02-24T02:05:23.978Z,81.40
2019-02-24T02:07:55.074Z,90.57
2019-02-24T02:10:25.433Z,91.07
2019-02-24T02:12:59.013Z,94.13
2019-02-24T02:15:31.268Z,87.87
2019-02-24T02:18:02.016Z,84.20
2019-02-24T02:20:33.406Z,76.90
2019-02-24T02:23:04.211Z,73.00
2019-02-24T02:25:34.654Z,72.73
2019-02-24T02:28:07.093Z,74.97
2019-02-24T02:30:39.342Z,66.93
2019-02-24T02:33:11.289Z,69.40
2019-02-24T02:35:44.220Z,72.37
2019-02-24T02:38:16.268Z,71.27
2019-02-24T02:40:46.370Z,75.20
2019-02-24T02:43:17.275Z,73.90
2019-02-24T02:45:51.701Z,75.47
2019-02-24T02:48:22.223Z,70.47
2019-02-24T02:50:53.817Z,68.27
2019-02-24T02:53:23.996Z,71.77
2019-02-24T02:55:54.383Z,71.60
2019-02-24T02:58:25.984Z,72.50
2019-02-24T03:00:57.175Z,72.13
2019-02-24T03:03:28.056Z,69.63
2019-02-24T03:05:59.950Z,75.40
2019-02-24T03:08:50.206Z,68.67
2019-02-24T03:11:21.558Z,72.00
2019-02-24T03:13:51.211Z,71.13
2019-02-24T03:16:23.134Z,71.87
2019-02-24T03:18:54.216Z,67.83
2019-02-24T03:21:27.680Z,67.93
2019-02-24T03:23:58.432Z,63.57
2019-02-24T03:26:27.776Z,63.70
2019-02-24T03:29:17.711Z,67.30
2019-02-24T03:31:48.646Z,66.07
2019-02-24T03:34:22.387Z,67.23
2019-02-24T03:36:54.194Z,66.30
2019-02-24T03:39:25.298Z,63.30
2019-02-24T03:41:56.121Z,59.77
2019-02-24T03:44:26.575Z,58.10
2019-02-24T03:46:57.539Z,59.07
2019-02-24T03:49:29.412Z,58.80
2019-02-24T03:52:01.205Z,59.60
2019-02-24T03:54:31.527Z,67.13
2019-02-24T03:57:01.974Z,66.27
2019-02-24T03:59:32.352Z,95.67
2019-02-24T04:02:03.268Z,82.97
2019-02-24T04:04:33.100Z,71.83
2019-02-24T04:07:03.406Z,68.67
2019-02-24T04:09:33.641Z,60.47
2019-02-24T04:12:04.141Z,60.73
2019-02-24T04:14:35.827Z,60.43
2019-02-24T04:17:08.067Z,56.60
2019-02-24T04:19:37.357Z,56.10
2019-02-24T04:22:06.624Z,56.37
2019-02-24T04:24:36.283Z,56.17
2019-02-24T04:27:06.990Z,55.73
2019-02-24T04:29:37.424Z,53.20
2019-02-24T04:32:08.573Z,54.27
2019-02-24T04:34:39.482Z,56.63
2019-02-24T04:37:11.639Z,56.27
2019-02-24T04:39:43.159Z,114.60
2019-02-24T04:42:15.292Z,91.73
2019-02-24T04:44:46.211Z,104.33
2019-02-24T04:47:17.195Z,80.00
2019-02-24T04:49:47.457Z,61.35
2019-02-24T04:52:18.796Z,61.17
2019-02-24T04:54:51.770Z,57.57
2019-02-24T04:57:23.372Z,54.30
2019-02-24T04:59:54.094Z,55.40
2019-02-24T05:02:24.017Z,55.10
2019-02-24T05:04:57.092Z,56.20
2019-02-24T05:07:31.011Z,63.90
2019-02-24T05:10:03.067Z,58.80
2019-02-24T05:12:33.731Z,60.03
2019-02-24T05:15:04.663Z,58.10
2019-02-24T05:17:35.885Z,58.97
2019-02-24T05:20:08.244Z,59.35
2019-02-24T05:22:39.260Z,57.40
2019-02-24T05:25:09.740Z,54.07
2019-02-24T05:27:43.631Z,52.57
2019-02-24T05:30:15.122Z,53.50
2019-02-24T05:32:48.978Z,53.20
2019-02-24T05:35:20.186Z,56.27
2019-02-24T05:37:51.765Z,56.20
2019-02-24T05:40:41.267Z,54.63
2019-02-24T05:43:12.035Z,47.47
2019-02-24T05:45:42.392Z,48.20
2019-02-24T05:48:12.739Z,49.00
2019-02-24T05:50:44.932Z,47.43
2019-02-24T05:53:14.594Z,49.73
2019-02-24T05:55:45.171Z,46.30
2019-02-24T05:58:14.964Z,47.00
2019-02-24T06:00:45.592Z,47.17
2019-02-24T06:03:17.384Z,47.57
2019-02-24T06:05:50.351Z,47.23
2019-02-24T06:08:21.947Z,46.23
2019-02-24T06:10:52.785Z,45.87
2019-02-24T06:13:24.598Z,42.03
2019-02-24T06:15:57.785Z,37.83
2019-02-24T06:18:27.497Z,37.47
2019-02-24T06:21:00.499Z,37.07
2019-02-24T06:23:31.600Z,37.35
2019-02-24T06:26:03.900Z,35.60
2019-02-24T06:28:35.850Z,34.13
2019-02-24T06:31:06.639Z,34.13
2019-02-24T06:33:38.035Z,35.30
2019-02-24T06:36:08.323Z,32.67
2019-02-24T06:38:43.333Z,34.10
2019-02-24T06:41:14.481Z,32.38
2019-02-24T06:43:45.011Z,32.83
2019-02-24T06:46:17.161Z,35.57
2019-02-24T06:48:51.028Z,48.20
2019-02-24T06:51:23.903Z,110.77
2019-02-24T06:54:13.891Z,192.73
2019-02-24T06:56:47.200Z,124.90
2019-02-24T06:59:16.928Z,210.07
2019-02-24T07:01:46.635Z,84.70
2019-02-24T07:04:19.109Z,50.70
2019-02-24T07:06:50.839Z,49.63
2019-02-24T07:09:21.857Z,55.73
2019-02-24T07:11:53.593Z,127.33
2019-02-24T07:14:28.951Z,71.87
2019-02-24T07:17:18.630Z,47.73
2019-02-24T07:19:48.826Z,42.37
2019-02-24T07:22:22.207Z,37.63
2019-02-24T07:24:56.221Z,37.03
2019-02-24T07:27:29.167Z,40.33
2019-02-24T07:30:00.425Z,47.13
2019-02-24T07:32:31.968Z,40.27
2019-02-24T07:35:04.659Z,53.37
2019-02-24T07:37:35.062Z,31.13
2019-02-24T07:40:07.118Z,30.40
2019-02-24T07:42:40.477Z,31.03
2019-02-24T07:45:13.119Z,29.60
2019-02-24T07:47:48.090Z,27.47
2019-02-24T07:50:19.514Z,33.23
2019-02-24T07:52:50.891Z,31.43
2019-02-24T07:55:24.231Z,28.80
2019-02-24T07:57:56.604Z,29.03
2019-02-24T08:00:32.266Z,27.97
2019-02-24T08:03:02.177Z,26.63
2019-02-24T08:05:37.302Z,32.87
2019-02-24T08:08:16.241Z,22.67
2019-02-24T08:10:40.903Z,22.03
2019-02-24T08:13:11.745Z,20.77
2019-02-24T08:15:43.837Z,21.23
2019-02-24T08:18:15.714Z,19.83
2019-02-24T08:20:47.200Z,20.13
2019-02-24T08:23:18.776Z,25.95
2019-02-24T08:25:49.579Z,19.87
2019-02-24T08:28:22.899Z,22.97
2019-02-24T08:30:54.357Z,56.47
2019-02-24T08:33:26.343Z,36.77
2019-02-24T08:35:58.070Z,31.20
2019-02-24T08:38:28.475Z,19.27
2019-02-24T08:41:00.371Z,25.63
2019-02-24T08:43:34.732Z,18.63
2019-02-24T08:46:06.849Z,20.30
2019-02-24T08:48:39.168Z,18.67
2019-02-24T08:51:09.318Z,19.33
2019-02-24T08:53:41.123Z,19.40
2019-02-24T08:56:12.333Z,20.03
2019-02-24T08:58:43.146Z,18.33
2019-02-24T09:01:14.601Z,21.37
2019-02-24T09:03:44.737Z,20.90
2019-02-24T09:06:18.889Z,19.97
2019-02-24T09:08:48.576Z,20.37
2019-02-24T09:11:20.393Z,23.37
2019-02-24T09:13:52.514Z,23.30
2019-02-24T09:16:24.437Z,29.75
2019-02-24T09:18:54.946Z,38.27
2019-02-24T09:21:26.317Z,34.53
2019-02-24T09:23:56.609Z,51.90
2019-02-24T09:26:28.087Z,38.23
2019-02-24T09:29:01.623Z,24.10
2019-02-24T09:31:33.045Z,30.37
2019-02-24T09:34:03.962Z,23.43
2019-02-24T09:36:34.274Z,25.27
2019-02-24T09:39:08.530Z,347.57
2019-02-24T09:41:41.144Z,239.23
2019-02-24T09:44:12.776Z,37.83
2019-02-24T09:46:43.148Z,48.60
2019-02-24T09:49:14.146Z,29.70
2019-02-24T09:54:15.044Z,45.70
2019-02-24T09:56:48.397Z,26.30
2019-02-24T09:59:18.848Z,31.73
2019-02-24T10:01:49.104Z,47.37
2019-02-24T10:04:24.962Z,50.37
2019-02-24T10:06:56.850Z,33.60
2019-02-24T10:09:30.892Z,37.83
2019-02-24T10:12:04.024Z,38.37
2019-02-24T10:14:37.339Z,43.50
2019-02-24T10:17:09.442Z,39.80
2019-02-24T10:19:41.525Z,36.03
2019-02-24T10:22:13.595Z,35.93
2019-02-24T10:24:45.454Z,30.72
2019-02-24T10:27:17.250Z,27.82
2019-02-24T10:29:48.436Z,21.27
2019-02-24T10:32:19.129Z,23.73
2019-02-24T10:34:52.081Z,24.33
2019-02-24T10:37:25.336Z,23.10
2019-02-24T10:39:56.218Z,21.57
2019-02-24T10:42:27.125Z,22.07
2019-02-24T10:44:57.995Z,20.13
2019-02-24T10:47:29.165Z,21.77
2019-02-24T10:50:01.175Z,22.07
2019-02-24T10:52:32.128Z,18.83
2019-02-24T10:55:05.884Z,32.13
2019-02-24T10:57:36.630Z,35.13
2019-02-24T11:00:19.017Z,18.43
2019-02-24T11:02:49.398Z,18.73
2019-02-24T11:05:20.043Z,22.53
2019-02-24T11:07:51.937Z,47.33
2019-02-24T11:10:23.157Z,32.83
2019-02-24T11:12:55.885Z,18.57
2019-02-24T11:15:29.168Z,16.10
2019-02-24T11:18:02.229Z,13.47
2019-02-24T11:20:34.327Z,12.83
2019-02-24T11:23:06.496Z,13.80
2019-02-24T11:25:39.734Z,12.70
2019-02-24T11:28:11.087Z,12.67
2019-02-24T11:30:42.563Z,11.07
2019-02-24T11:33:13.339Z,13.43
2019-02-24T11:35:45.074Z,13.17
2019-02-24T11:38:18.107Z,28.43
2019-02-24T11:40:48.868Z,24.33
2019-02-24T11:43:20.375Z,12.00
2019-02-24T11:45:51.948Z,11.73
2019-02-24T11:48:25.377Z,11.43
2019-02-24T11:50:55.945Z,11.70
2019-02-24T11:53:26.954Z,12.23
2019-02-24T11:55:58.878Z,10.03
2019-02-24T11:58:32.116Z,10.53
2019-02-24T12:01:04.049Z,10.83
2019-02-24T12:03:34.220Z,10.15
2019-02-24T12:06:08.989Z,16.83
2019-02-24T12:08:39.798Z,11.48
2019-02-24T12:11:13.054Z,11.27
2019-02-24T12:13:43.851Z,12.23
2019-02-24T12:16:14.151Z,11.63
2019-02-24T12:18:45.581Z,14.97
2019-02-24T12:21:16.935Z,15.70
2019-02-24T12:23:48.908Z,15.60
2019-02-24T12:26:23.997Z,14.68
2019-02-24T12:28:54.680Z,13.93
2019-02-24T12:31:25.679Z,14.07
2019-02-24T12:33:56.906Z,13.93
2019-02-24T12:36:27.802Z,12.97
2019-02-24T12:38:58.444Z,12.70
2019-02-24T12:41:31.405Z,9.83
2019-02-24T12:44:04.979Z,11.07
2019-02-24T12:46:37.779Z,12.67
2019-02-24T12:49:10.068Z,12.13
2019-02-24T12:51:41.557Z,10.90
2019-02-24T12:54:12.862Z,12.53
2019-02-24T12:56:44.792Z,11.53
2019-02-24T12:59:14.546Z,11.13
2019-02-24T13:01:44.748Z,11.47
2019-02-24T13:04:16.181Z,10.80
2019-02-24T13:06:46.834Z,11.33
2019-02-24T13:09:19.606Z,11.80
2019-02-24T13:11:50.908Z,11.37
2019-02-24T13:14:22.841Z,11.57
2019-02-24T13:17:00.572Z,12.07
2019-02-24T13:19:34.029Z,12.03
2019-02-24T13:22:07.008Z,12.67
2019-02-24T13:24:56.882Z,12.20
2019-02-24T13:27:27.263Z,13.17
2019-02-24T13:29:59.432Z,13.07
2019-02-24T13:32:31.133Z,12.67
2019-02-24T13:35:01.899Z,12.73
2019-02-24T13:37:33.014Z,12.00
2019-02-24T13:40:03.664Z,11.73
2019-02-24T13:42:35.662Z,11.10
2019-02-24T13:45:09.768Z,11.80
2019-02-24T13:47:39.507Z,10.13
2019-02-24T13:50:12.734Z,11.17
2019-02-24T13:52:44.325Z,9.57
2019-02-24T13:55:18.875Z,10.63
2019-02-24T13:57:50.595Z,9.10
2019-02-24T14:00:21.439Z,10.63
2019-02-24T14:02:53.100Z,10.83
2019-02-24T14:05:24.943Z,10.53
2019-02-24T14:07:56.629Z,9.57
2019-02-24T14:10:28.825Z,9.63
2019-02-24T14:13:03.363Z,9.73
2019-02-24T14:15:36.703Z,10.57
2019-02-24T14:18:08.011Z,10.60
2019-02-24T14:20:39.985Z,10.53
2019-02-24T14:23:12.506Z,9.97
2019-02-24T14:25:43.814Z,10.23
2019-02-24T14:28:16.507Z,10.50
2019-02-24T14:30:49.237Z,10.27
2019-02-24T14:33:20.437Z,11.40
2019-02-24T14:35:50.914Z,12.13
2019-02-24T14:38:22.775Z,12.05
2019-02-24T14:40:54.586Z,12.23
2019-02-24T14:43:26.167Z,11.10
2019-02-24T14:45:59.581Z,12.37
2019-02-24T14:48:29.782Z,12.70
2019-02-24T14:51:01.779Z,12.20
2019-02-24T14:53:33.459Z,13.53
2019-02-24T14:56:04.047Z,14.10
2019-02-24T14:58:34.496Z,13.10
2019-02-24T15:01:05.385Z,14.97
2019-02-24T15:03:36.116Z,14.30
2019-02-24T15:06:07.251Z,16.70
2019-02-24T15:08:37.040Z,15.07
2019-02-24T15:11:09.650Z,15.87
2019-02-24T15:13:44.223Z,29.20
2019-02-24T15:16:16.308Z,20.60
2019-02-24T15:18:47.449Z,15.13
2019-02-24T15:21:21.032Z,18.00
2019-02-24T15:23:52.500Z,14.83
2019-02-24T15:26:23.771Z,13.93
2019-02-24T15:28:57.911Z,14.70
2019-02-24T15:31:30.950Z,14.73
2019-02-24T15:34:00.563Z,15.20
2019-02-24T15:36:31.362Z,18.23
2019-02-24T15:39:01.031Z,14.53
2019-02-24T15:41:36.083Z,25.43
2019-02-24T15:44:07.696Z,48.47
2019-02-24T15:46:39.452Z,36.67
2019-02-24T15:49:11.475Z,35.30
2019-02-24T15:51:42.753Z,25.30
2019-02-24T15:54:14.140Z,18.37
2019-02-24T15:56:46.914Z,19.20
2019-02-24T15:59:18.055Z,16.53
2019-02-24T16:01:49.730Z,21.70
2019-02-24T16:04:20.438Z,44.30
2019-02-24T16:06:53.012Z,41.70
2019-02-24T16:11:57.571Z,22.13
2019-02-24T16:14:29.460Z,61.90
2019-02-24T16:17:02.343Z,19.33
2019-02-24T16:19:33.198Z,35.90
2019-02-24T16:22:05.524Z,20.00
2019-02-24T16:25:02.462Z,20.33
2019-02-24T16:27:34.575Z,21.82
2019-02-24T16:30:06.866Z,24.87
2019-02-24T16:32:37.035Z,31.03
2019-02-24T16:35:11.018Z,45.23
2019-02-24T16:37:42.259Z,63.03
2019-02-24T16:40:20.580Z,30.73
2019-02-24T16:42:52.319Z,32.90
2019-02-24T16:45:25.322Z,19.47
2019-02-24T16:47:56.695Z,19.97
2019-02-24T16:50:26.369Z,24.87
2019-02-24T16:52:57.377Z,20.63
2019-02-24T16:55:30.406Z,21.83
2019-02-24T16:58:02.004Z,19.27
2019-02-24T17:00:33.555Z,18.83
2019-02-24T17:03:05.735Z,17.23
2019-02-24T17:08:27.619Z,18.20
2019-02-24T17:11:07.010Z,19.57
2019-02-24T17:13:31.437Z,21.30
2019-02-24T17:16:03.509Z,19.17
2019-02-24T17:18:36.355Z,19.57
2019-02-24T17:21:08.648Z,21.00
2019-02-24T17:23:49.554Z,26.03
2019-02-24T17:26:11.045Z,22.97
2019-02-24T17:28:42.527Z,23.83
2019-02-24T17:31:15.857Z,24.67
2019-02-24T17:33:47.084Z,25.23
2019-02-24T17:36:20.234Z,24.53
2019-02-24T17:38:51.346Z,28.07
2019-02-24T17:41:23.193Z,26.42
2019-02-24T17:43:55.511Z,27.23
2019-02-24T17:46:25.378Z,27.47
2019-02-24T17:48:57.192Z,27.63
2019-02-24T17:51:27.407Z,27.20
2019-02-24T17:53:59.587Z,28.27
2019-02-24T17:56:30.120Z,27.47
2019-02-24T17:59:01.482Z,29.93
2019-02-24T18:01:32.691Z,29.57
2019-02-24T18:04:05.310Z,30.23
2019-02-24T18:06:37.289Z,27.93
2019-02-24T18:09:10.389Z,29.03
2019-02-24T18:11:42.762Z,28.67
2019-02-24T18:14:14.109Z,27.42
2019-02-24T18:16:45.587Z,26.83
2019-02-24T18:19:16.969Z,26.80
2019-02-24T18:21:48.571Z,26.13
2019-02-24T18:24:19.950Z,26.63
2019-02-24T18:26:51.447Z,26.87
2019-02-24T18:29:25.068Z,26.83
2019-02-24T18:31:56.183Z,28.27
2019-02-24T18:34:27.086Z,27.77
2019-02-24T18:36:59.093Z,28.43
2019-02-24T18:39:30.150Z,28.50
2019-02-24T18:42:03.651Z,29.67
2019-02-24T18:44:35.151Z,30.17
2019-02-24T18:47:08.000Z,27.87
2019-02-24T18:49:40.499Z,27.63
2019-02-24T18:52:10.852Z,26.13
2019-02-24T18:54:44.147Z,27.90
2019-02-24T18:57:15.858Z,27.53
2019-02-24T18:59:47.847Z,28.63
2019-02-24T19:02:19.443Z,27.60
2019-02-24T19:04:49.320Z,28.90
2019-02-24T19:07:20.648Z,29.63
2019-02-24T19:09:51.926Z,28.73
2019-02-24T19:12:21.635Z,28.87
2019-02-24T19:14:54.472Z,28.53
2019-02-24T19:17:27.670Z,28.10
2019-02-24T19:19:59.863Z,28.20
2019-02-24T19:22:33.206Z,28.77
2019-02-24T19:25:05.451Z,30.03
2019-02-24T19:27:37.494Z,29.57
2019-02-24T19:30:16.710Z,28.40
2019-02-24T19:32:47.874Z,28.10
2019-02-24T19:35:19.503Z,28.55
2019-02-24T19:37:52.752Z,27.93
2019-02-24T19:40:23.957Z,28.20
2019-02-24T19:42:57.813Z,28.10
2019-02-24T19:45:27.659Z,28.57
2019-02-24T19:47:58.000Z,28.67
2019-02-24T19:50:28.413Z,30.20
2019-02-24T19:53:00.374Z,28.87
2019-02-24T19:55:31.985Z,29.87
2019-02-24T19:58:02.303Z,28.83
2019-02-24T20:00:32.519Z,30.13
2019-02-24T20:03:03.520Z,29.03
2019-02-24T20:05:35.618Z,29.40
2019-02-24T20:08:07.388Z,31.40
2019-02-24T20:10:39.501Z,30.87
2019-02-24T20:13:11.667Z,29.20
2019-02-24T20:15:45.744Z,28.60
2019-02-24T20:18:16.437Z,28.67
2019-02-24T20:20:48.186Z,27.97
2019-02-24T20:23:18.566Z,29.37
2019-02-24T20:25:49.082Z,27.37
2019-02-24T20:28:24.033Z,27.63
2019-02-24T20:30:55.802Z,23.73
2019-02-24T20:33:26.627Z,24.10
2019-02-24T20:35:57.583Z,23.73
2019-02-24T20:38:27.902Z,22.67
2019-02-24T20:41:00.019Z,20.67
2019-02-24T20:43:32.557Z,22.53
2019-02-24T20:46:06.341Z,21.20
2019-02-24T20:48:37.639Z,21.90
2019-02-24T20:51:07.834Z,19.13
2019-02-24T20:53:38.524Z,21.17
2019-02-24T20:56:08.246Z,18.17
2019-02-24T20:58:39.804Z,18.93
2019-02-24T21:01:10.975Z,19.10
2019-02-24T21:03:43.444Z,18.40
2019-02-24T21:06:17.697Z,18.25
2019-02-24T21:08:48.789Z,19.67
2019-02-24T21:11:22.365Z,18.53
2019-02-24T21:13:52.974Z,18.83
2019-02-24T21:16:22.080Z,19.35
2019-02-24T21:18:54.754Z,19.87
2019-02-24T21:21:25.027Z,19.67
2019-02-24T21:23:55.871Z,21.43
2019-02-24T21:26:25.761Z,20.57
2019-02-24T21:28:58.153Z,19.27
2019-02-24T21:31:28.433Z,20.30
2019-02-24T21:33:59.832Z,21.47
2019-02-24T21:36:29.356Z,19.83
2019-02-24T21:39:02.786Z,22.13
2019-02-24T21:41:36.100Z,21.83
2019-02-24T21:44:06.553Z,28.25
2019-02-24T21:46:43.131Z,24.77
2019-02-24T21:49:14.126Z,25.17
2019-02-24T21:51:44.179Z,27.40
2019-02-24T21:54:16.372Z,26.03
2019-02-24T21:56:47.554Z,33.73
2019-02-24T21:59:20.410Z,32.03
2019-02-24T22:01:50.904Z,33.80
2019-02-24T22:04:24.699Z,34.37
2019-02-24T22:06:56.276Z,29.17
2019-02-24T22:09:26.638Z,29.37
2019-02-24T22:11:58.998Z,32.15
2019-02-24T22:14:29.313Z,45.47
2019-02-24T22:17:00.179Z,74.57
2019-02-24T22:19:30.556Z,61.17
2019-02-24T22:22:02.487Z,70.70
2019-02-24T22:24:34.424Z,98.20
2019-02-24T22:27:04.831Z,87.97
2019-02-24T22:29:38.140Z,77.33
2019-02-24T22:32:11.862Z,87.37
2019-02-24T22:34:44.031Z,118.93
2019-02-24T22:37:26.363Z,126.13
2019-02-24T22:39:59.358Z,197.23
2019-02-24T22:42:30.868Z,141.53
2019-02-24T22:45:02.146Z,116.67
2019-02-24T22:47:33.666Z,106.80
2019-02-24T22:50:06.799Z,132.50
2019-02-24T22:52:37.675Z,120.87
2019-02-24T22:55:14.409Z,104.97
2019-02-24T22:57:46.085Z,105.67
2019-02-24T23:00:46.726Z,102.33
2019-02-24T23:03:20.223Z,102.00
2019-02-24T23:05:52.008Z,93.90
2019-02-24T23:08:22.567Z,100.13
2019-02-24T23:11:13.135Z,94.87
2019-02-24T23:13:44.735Z,92.60
2019-02-24T23:16:18.742Z,65.17
2019-02-24T23:18:49.516Z,45.33
2019-02-24T23:21:20.950Z,41.90
2019-02-24T23:23:51.604Z,51.27
2019-02-24T23:26:21.281Z,62.03
2019-02-24T23:28:52.183Z,54.77
2019-02-24T23:31:22.639Z,53.80
2019-02-24T23:33:54.266Z,48.23
2019-02-24T23:36:24.503Z,48.92
2019-02-24T23:38:57.394Z,46.60
2019-02-24T23:41:29.371Z,45.87
2019-02-24T23:44:04.824Z,43.07
2019-02-24T23:46:35.506Z,40.47
2019-02-24T23:49:06.495Z,45.93
2019-02-24T23:51:38.383Z,51.37
2019-02-24T23:54:07.932Z,62.50
2019-02-24T23:56:39.195Z,82.07
2019-02-24T23:59:09.852Z,102.65
